Time;durP1;ratioP1;P1;durP2;ratioP2;P2;SDS_P1;SDS_P2;PMS_P1;PMS_P2;Temp;Humidity;BMP_temperature;BMP_pressure;BME280_temperature;BME280_humidity;BME280_pressure;Samples;Min_cycle;Max_cycle;Signal;HPM_P1;HPM_P2
2022/06/09 00:01:15;;;;;;;0.65;0.65;;;;;;;;;;1836564;76;26759;-53
2022/06/09 00:03:43;;;;;;;0.80;0.80;;;;;;;;;;1849816;76;26338;-54
2022/06/09 00:06:11;;;;;;;0.70;0.70;;;;;;;;;;1854759;76;26266;-49
2022/06/09 00:08:40;;;;;;;0.70;0.70;;;;;;;;;;1850856;76;26267;-48
2022/06/09 00:11:09;;;;;;;0.80;0.80;;;;;;;;;;1843395;77;26339;-53
2022/06/09 00:13:38;;;;;;;0.70;0.70;;;;;;;;;;1852890;76;26275;-53
2022/06/09 00:16:06;;;;;;;0.78;0.78;;;;;;;;;;1840229;76;26220;-51
2022/06/09 00:18:34;;;;;;;0.60;0.60;;;;;;;;;;1849396;76;26494;-48
2022/06/09 00:21:01;;;;;;;0.62;0.62;;;;;;;;;;1848716;76;26221;-47
2022/06/09 00:23:29;;;;;;;0.50;0.50;;;;;;;;;;1846796;76;26280;-50
2022/06/09 00:25:56;;;;;;;0.70;0.70;;;;;;;;;;1849195;76;26716;-53
2022/06/09 00:28:23;;;;;;;0.68;0.68;;;;;;;;;;1805751;77;26316;-51
2022/06/09 00:30:51;;;;;;;0.60;0.60;;;;;;;;;;1814181;77;26743;-46
2022/06/09 00:33:18;;;;;;;0.78;0.78;;;;;;;;;;1810586;79;26301;-49
2022/06/09 00:35:46;;;;;;;0.60;0.60;;;;;;;;;;1798680;78;26380;-48
2022/06/09 00:38:13;;;;;;;0.70;0.70;;;;;;;;;;1821612;78;26717;-51
2022/06/09 00:40:41;;;;;;;0.70;0.70;;;;;;;;;;1801184;78;26305;-50
2022/06/09 00:43:08;;;;;;;0.70;0.70;;;;;;;;;;1790104;79;26256;-49
2022/06/09 00:45:37;;;;;;;0.60;0.60;;;;;;;;;;1816827;78;26303;-49
2022/06/09 00:48:23;;;;;;;0.60;0.60;;;;;;;;;;1813494;78;26231;-48
2022/06/09 00:50:51;;;;;;;0.70;0.70;;;;;;;;;;1813275;78;26781;-50
2022/06/09 00:53:20;;;;;;;0.70;0.70;;;;;;;;;;1834261;76;26664;-46
2022/06/09 00:55:48;;;;;;;0.60;0.60;;;;;;;;;;1827568;76;26272;-50
2022/06/09 00:58:17;;;;;;;0.80;0.60;;;;;;;;;;1848347;76;26268;-49
2022/06/09 01:00:48;;;;;;;0.72;0.72;;;;;;;;;;1852577;76;26956;-48
2022/06/09 01:03:17;;;;;;;0.60;0.60;;;;;;;;;;1834289;76;26697;-46
2022/06/09 01:05:45;;;;;;;0.70;0.70;;;;;;;;;;1833820;76;26295;-49
2022/06/09 01:08:13;;;;;;;0.70;0.70;;;;;;;;;;1850132;76;26319;-51
2022/06/09 01:10:41;;;;;;;0.70;0.70;;;;;;;;;;1848026;76;27282;-49
2022/06/09 01:13:09;;;;;;;0.80;0.80;;;;;;;;;;1824952;77;26297;-50
2022/06/09 01:15:41;;;;;;;0.80;0.80;;;;;;;;;;1821016;77;26753;-48
2022/06/09 01:18:24;;;;;;;0.60;0.60;;;;;;;;;;1816166;77;26292;-52
2022/06/09 01:21:12;;;;;;;0.70;0.70;;;;;;;;;;1766918;80;26769;-46
2022/06/09 01:23:58;;;;;;;0.70;0.70;;;;;;;;;;1800196;77;26366;-49
2022/06/09 01:26:35;;;;;;;0.60;0.60;;;;;;;;;;1810724;77;26317;-50
2022/06/09 01:29:04;;;;;;;0.78;0.78;;;;;;;;;;1816412;77;26351;-48
2022/06/09 01:31:36;;;;;;;0.65;0.65;;;;;;;;;;1820921;77;26256;-49
2022/06/09 01:34:07;;;;;;;0.70;0.70;;;;;;;;;;1799079;77;26263;-47
2022/06/09 01:36:36;;;;;;;0.70;0.70;;;;;;;;;;1806044;77;26283;-46
2022/06/09 01:39:05;;;;;;;0.60;0.60;;;;;;;;;;1820543;77;26291;-51
2022/06/09 01:41:33;;;;;;;0.70;0.70;;;;;;;;;;1818180;77;26284;-51
2022/06/09 01:44:01;;;;;;;0.70;0.70;;;;;;;;;;1826821;77;26316;-46
2022/06/09 01:46:36;;;;;;;0.70;0.70;;;;;;;;;;1817027;77;26886;-48
2022/06/09 01:49:08;;;;;;;0.80;0.80;;;;;;;;;;1817191;77;26339;-48
2022/06/09 01:51:36;;;;;;;1.75;0.72;;;;;;;;;;1815672;77;28003;-49
2022/06/09 01:54:05;;;;;;;0.72;0.72;;;;;;;;;;1815680;77;26815;-48
2022/06/09 01:56:43;;;;;;;0.65;0.65;;;;;;;;;;1817455;77;26855;-48
2022/06/09 01:59:12;;;;;;;0.80;0.80;;;;;;;;;;1819442;77;26837;-49
2022/06/09 02:01:41;;;;;;;0.78;0.78;;;;;;;;;;1828940;77;26800;-53
2022/06/09 02:04:10;;;;;;;0.80;0.80;;;;;;;;;;1813041;77;26354;-50
2022/06/09 02:06:37;;;;;;;0.80;0.80;;;;;;;;;;1804939;77;26277;-49
2022/06/09 02:09:05;;;;;;;0.82;0.82;;;;;;;;;;1831447;77;26274;-51
2022/06/09 02:11:34;;;;;;;0.80;0.80;;;;;;;;;;1827054;76;26273;-47
2022/06/09 02:14:01;;;;;;;0.72;0.72;;;;;;;;;;1834906;76;26244;-51
2022/06/09 02:16:29;;;;;;;0.78;0.78;;;;;;;;;;1853884;76;26228;-49
2022/06/09 02:18:57;;;;;;;1.12;0.70;;;;;;;;;;1859318;76;26304;-49
2022/06/09 02:21:29;;;;;;;0.70;0.70;;;;;;;;;;1844779;76;26721;-51
2022/06/09 02:23:56;;;;;;;0.72;0.72;;;;;;;;;;1828259;76;26756;-48
2022/06/09 02:26:24;;;;;;;0.68;0.68;;;;;;;;;;1860548;76;26282;-49
2022/06/09 02:28:52;;;;;;;0.72;0.72;;;;;;;;;;1835406;76;26272;-47
2022/06/09 02:31:20;;;;;;;0.80;0.80;;;;;;;;;;1843922;76;26283;-49
2022/06/09 02:33:48;;;;;;;0.70;0.70;;;;;;;;;;1844530;76;26275;-51
2022/06/09 02:36:15;;;;;;;0.75;0.75;;;;;;;;;;1840445;76;26377;-49
2022/06/09 02:38:42;;;;;;;0.70;0.70;;;;;;;;;;1855660;76;26230;-52
2022/06/09 02:41:10;;;;;;;0.80;0.80;;;;;;;;;;1838072;76;26221;-51
2022/06/09 02:43:37;;;;;;;0.80;0.80;;;;;;;;;;1839970;77;26283;-49
2022/06/09 02:46:04;;;;;;;0.70;0.70;;;;;;;;;;1814703;77;26372;-51
2022/06/09 02:48:32;;;;;;;0.80;0.80;;;;;;;;;;1813590;77;26920;-49
2022/06/09 02:51:16;;;;;;;0.80;0.80;;;;;;;;;;1808093;78;26299;-49
2022/06/09 02:53:43;;;;;;;0.80;0.80;;;;;;;;;;1816013;78;26314;-50
2022/06/09 02:56:11;;;;;;;0.75;0.75;;;;;;;;;;1800946;79;26324;-51
2022/06/09 02:58:38;;;;;;;1.65;0.90;;;;;;;;;;1799770;79;26369;-49
2022/06/09 03:01:05;;;;;;;0.80;0.80;;;;;;;;;;1819179;77;26309;-50
2022/06/09 03:03:32;;;;;;;0.80;0.80;;;;;;;;;;1819263;77;27076;-47
2022/06/09 03:06:00;;;;;;;0.80;0.80;;;;;;;;;;1828180;77;26840;-52
2022/06/09 03:08:27;;;;;;;0.90;0.90;;;;;;;;;;1806694;78;26229;-50
2022/06/09 03:10:54;;;;;;;0.80;0.80;;;;;;;;;;1816264;78;26337;-47
2022/06/09 03:13:22;;;;;;;0.80;0.80;;;;;;;;;;1799571;77;26376;-51
2022/06/09 03:15:50;;;;;;;0.80;0.80;;;;;;;;;;1803139;78;26284;-51
2022/06/09 03:18:18;;;;;;;0.70;0.70;;;;;;;;;;1783746;78;26295;-52
2022/06/09 03:20:46;;;;;;;0.80;0.80;;;;;;;;;;1795344;78;26251;-51
2022/06/09 03:23:13;;;;;;;1.65;0.70;;;;;;;;;;1801796;78;26242;-47
2022/06/09 03:25:43;;;;;;;0.68;0.68;;;;;;;;;;1800213;79;26355;-49
2022/06/09 03:28:11;;;;;;;0.88;0.88;;;;;;;;;;1806145;78;26796;-46
2022/06/09 03:30:38;;;;;;;0.78;0.78;;;;;;;;;;1815955;78;26373;-48
2022/06/09 03:33:06;;;;;;;0.70;0.70;;;;;;;;;;1805030;78;26324;-47
2022/06/09 03:35:34;;;;;;;0.90;0.90;;;;;;;;;;1805307;78;26759;-54
2022/06/09 03:38:01;;;;;;;0.80;0.80;;;;;;;;;;1800379;78;26369;-51
2022/06/09 03:40:30;;;;;;;0.70;0.70;;;;;;;;;;1791572;78;26303;-48
2022/06/09 03:42:58;;;;;;;0.70;0.70;;;;;;;;;;1788673;78;26697;-52
2022/06/09 03:45:25;;;;;;;0.80;0.80;;;;;;;;;;1796195;78;26343;-54
2022/06/09 03:47:53;;;;;;;0.80;0.80;;;;;;;;;;1792089;80;26817;-50
2022/06/09 03:50:21;;;;;;;0.88;0.88;;;;;;;;;;1783606;78;26311;-54
2022/06/09 03:52:49;;;;;;;0.70;0.70;;;;;;;;;;1800398;78;26327;-55
2022/06/09 03:55:17;;;;;;;0.90;0.90;;;;;;;;;;1786136;78;26293;-55
2022/06/09 03:57:44;;;;;;;1.00;0.90;;;;;;;;;;1772958;78;26303;-53
2022/06/09 04:00:16;;;;;;;1.10;1.00;;;;;;;;;;1808597;78;26901;-52
2022/06/09 04:02:44;;;;;;;0.90;0.90;;;;;;;;;;1791862;78;26342;-50
2022/06/09 04:05:13;;;;;;;0.82;0.82;;;;;;;;;;1792701;80;26680;-51
2022/06/09 04:07:41;;;;;;;0.90;0.90;;;;;;;;;;1790221;78;26792;-47
2022/06/09 04:10:10;;;;;;;0.90;0.90;;;;;;;;;;1790340;78;26910;-49
2022/06/09 04:12:38;;;;;;;1.00;1.00;;;;;;;;;;1793562;78;26761;-48
2022/06/09 04:15:05;;;;;;;2.02;1.10;;;;;;;;;;1806800;78;26783;-52
2022/06/09 04:17:33;;;;;;;1.00;1.00;;;;;;;;;;1788417;78;26382;-52
2022/06/09 04:20:00;;;;;;;1.00;1.00;;;;;;;;;;1809911;78;26318;-51
2022/06/09 04:22:27;;;;;;;1.05;1.05;;;;;;;;;;1810087;79;26289;-48
2022/06/09 04:24:55;;;;;;;1.85;1.10;;;;;;;;;;1797097;78;26298;-52
2022/06/09 04:27:22;;;;;;;1.00;1.00;;;;;;;;;;1804796;78;26751;-49
2022/06/09 04:29:50;;;;;;;1.05;1.00;;;;;;;;;;1794667;78;26363;-51
2022/06/09 04:32:17;;;;;;;1.00;1.00;;;;;;;;;;1837318;76;26376;-47
2022/06/09 04:34:44;;;;;;;1.10;1.10;;;;;;;;;;1847838;76;26299;-47
2022/06/09 04:37:11;;;;;;;1.00;1.00;;;;;;;;;;1845918;76;26260;-50
2022/06/09 04:39:39;;;;;;;1.20;1.10;;;;;;;;;;1835104;76;26899;-50
2022/06/09 04:42:06;;;;;;;1.00;1.00;;;;;;;;;;1833768;76;26272;-50
2022/06/09 04:44:33;;;;;;;4.12;1.32;;;;;;;;;;1829018;76;26335;-51
2022/06/09 04:47:01;;;;;;;1.00;1.00;;;;;;;;;;1847600;76;26393;-49
2022/06/09 04:49:28;;;;;;;1.15;1.02;;;;;;;;;;1847718;76;26717;-47
2022/06/09 04:51:56;;;;;;;0.93;0.93;;;;;;;;;;1846148;76;26915;-49
2022/06/09 04:54:24;;;;;;;1.40;1.30;;;;;;;;;;1828746;76;26751;-51
2022/06/09 04:56:51;;;;;;;1.00;1.00;;;;;;;;;;1820839;76;26858;-49
2022/06/09 04:59:19;;;;;;;0.88;0.88;;;;;;;;;;1838744;76;26334;-48
2022/06/09 05:01:46;;;;;;;2.22;1.17;;;;;;;;;;1843472;76;26291;-50
2022/06/09 05:04:14;;;;;;;1.27;1.00;;;;;;;;;;1841144;76;26995;-52
2022/06/09 05:06:43;;;;;;;1.95;1.07;;;;;;;;;;1846076;76;26296;-53
2022/06/09 05:09:10;;;;;;;1.37;0.95;;;;;;;;;;1842277;76;26268;-48
2022/06/09 05:11:37;;;;;;;0.93;0.90;;;;;;;;;;1831647;76;26396;-52
2022/06/09 05:14:05;;;;;;;1.05;1.02;;;;;;;;;;1842976;76;26390;-49
2022/06/09 05:16:32;;;;;;;1.27;1.20;;;;;;;;;;1856746;76;26271;-50
2022/06/09 05:18:59;;;;;;;1.00;1.00;;;;;;;;;;1860075;76;26283;-49
2022/06/09 05:21:27;;;;;;;0.98;0.98;;;;;;;;;;1838079;77;26280;-49
2022/06/09 05:23:54;;;;;;;1.02;0.90;;;;;;;;;;1809171;78;26358;-50
2022/06/09 05:26:21;;;;;;;0.90;0.90;;;;;;;;;;1800794;78;26777;-51
2022/06/09 05:28:49;;;;;;;0.90;0.90;;;;;;;;;;1801268;78;26337;-49
2022/06/09 05:31:16;;;;;;;1.00;1.00;;;;;;;;;;1810769;78;26294;-52
2022/06/09 05:33:44;;;;;;;1.05;0.90;;;;;;;;;;1827813;78;26387;-54
2022/06/09 05:36:11;;;;;;;1.10;1.00;;;;;;;;;;1794507;77;26301;-51
2022/06/09 05:46:55;;;;;;;0.95;0.95;;;;;;;;;;1800104;78;26380;-49
2022/06/09 05:49:23;;;;;;;0.80;0.80;;;;;;;;;;1806183;78;26745;-46
2022/06/09 05:51:52;;;;;;;2.12;1.10;;;;;;;;;;1794260;78;26767;-50
2022/06/09 05:54:20;;;;;;;1.62;0.90;;;;;;;;;;1805413;78;27381;-52
2022/06/09 05:56:47;;;;;;;0.95;0.95;;;;;;;;;;1776064;81;26310;-47
2022/06/09 05:59:15;;;;;;;1.02;1.02;;;;;;;;;;1838522;76;26224;-51
2022/06/09 06:01:43;;;;;;;0.80;0.80;;;;;;;;;;1845674;76;26259;-46
2022/06/09 06:04:11;;;;;;;1.00;1.00;;;;;;;;;;1843851;76;26767;-51
2022/06/09 06:06:38;;;;;;;0.80;0.80;;;;;;;;;;1815406;78;26786;-48
2022/06/09 06:09:07;;;;;;;0.80;0.80;;;;;;;;;;1830356;78;26279;-53
2022/06/09 06:11:36;;;;;;;0.93;0.80;;;;;;;;;;1804170;78;26322;-51
2022/06/09 06:14:04;;;;;;;0.82;0.82;;;;;;;;;;1801025;78;26289;-51
2022/06/09 06:16:32;;;;;;;1.10;1.10;;;;;;;;;;1811204;78;26276;-50
2022/06/09 06:18:59;;;;;;;0.90;0.90;;;;;;;;;;1795652;78;26291;-52
2022/06/09 06:21:27;;;;;;;1.02;0.90;;;;;;;;;;1796708;78;26856;-51
2022/06/09 06:23:55;;;;;;;0.93;0.90;;;;;;;;;;1794085;78;26314;-51
2022/06/09 06:26:22;;;;;;;0.80;0.80;;;;;;;;;;1807516;78;26302;-49
2022/06/09 06:28:50;;;;;;;0.98;0.98;;;;;;;;;;1846365;76;26362;-49
2022/06/09 06:31:18;;;;;;;0.90;0.90;;;;;;;;;;1847959;76;26277;-51
2022/06/09 06:33:46;;;;;;;0.90;0.90;;;;;;;;;;1839736;76;26787;-46
2022/06/09 06:36:13;;;;;;;0.80;0.80;;;;;;;;;;1840837;76;26378;-50
2022/06/09 06:38:41;;;;;;;0.80;0.80;;;;;;;;;;1847622;76;26743;-47
2022/06/09 06:41:10;;;;;;;0.80;0.80;;;;;;;;;;1838926;76;26300;-48
2022/06/09 06:43:37;;;;;;;0.80;0.80;;;;;;;;;;1848171;77;26288;-53
2022/06/09 06:46:05;;;;;;;0.90;0.90;;;;;;;;;;1842841;76;26796;-47
2022/06/09 06:48:33;;;;;;;0.80;0.80;;;;;;;;;;1820238;76;26279;-50
2022/06/09 06:51:00;;;;;;;0.90;0.90;;;;;;;;;;1840684;77;26732;-53
2022/06/09 06:53:27;;;;;;;1.02;0.93;;;;;;;;;;1834049;76;27228;-48
2022/06/09 06:55:55;;;;;;;0.72;0.72;;;;;;;;;;1830294;76;26397;-50
2022/06/09 06:58:22;;;;;;;0.78;0.78;;;;;;;;;;1844323;76;26381;-52
2022/06/09 07:00:49;;;;;;;0.80;0.80;;;;;;;;;;1826304;76;26382;-52
2022/06/09 07:03:17;;;;;;;0.90;0.90;;;;;;;;;;1828684;76;26264;-51
2022/06/09 07:05:44;;;;;;;0.80;0.80;;;;;;;;;;1814332;79;26828;-51
2022/06/09 07:08:15;;;;;;;0.80;0.80;;;;;;;;;;1804036;78;26422;-51
2022/06/09 07:10:40;;;;;;;0.78;0.78;;;;;;;;;;1802213;79;26395;-50
2022/06/09 07:13:08;;;;;;;0.80;0.80;;;;;;;;;;1785750;78;26625;-51
2022/06/09 07:15:35;;;;;;;0.70;0.70;;;;;;;;;;1805141;79;26307;-50
2022/06/09 07:18:03;;;;;;;0.80;0.80;;;;;;;;;;1799119;78;26387;-49
2022/06/09 07:20:30;;;;;;;0.80;0.80;;;;;;;;;;1785226;78;26394;-53
2022/06/09 07:22:57;;;;;;;0.82;0.82;;;;;;;;;;1786552;78;26278;-50
2022/06/09 07:25:26;;;;;;;0.75;0.75;;;;;;;;;;1777875;78;26295;-50
2022/06/09 07:27:54;;;;;;;0.80;0.80;;;;;;;;;;1789208;78;26300;-50
2022/06/09 07:30:22;;;;;;;0.85;0.80;;;;;;;;;;1809710;78;26290;-50
2022/06/09 07:32:50;;;;;;;0.75;0.75;;;;;;;;;;1785849;78;26814;-51
2022/06/09 07:35:19;;;;;;;0.80;0.80;;;;;;;;;;1788714;78;26298;-52
2022/06/09 07:37:47;;;;;;;0.82;0.82;;;;;;;;;;1789612;78;26296;-50
2022/06/09 07:40:14;;;;;;;0.80;0.80;;;;;;;;;;1822971;78;27158;-54
2022/06/09 07:42:42;;;;;;;0.72;0.72;;;;;;;;;;1813626;78;26252;-55
2022/06/09 07:45:10;;;;;;;0.80;0.80;;;;;;;;;;1792416;78;26303;-53
2022/06/09 07:47:38;;;;;;;0.80;0.80;;;;;;;;;;1786716;78;26869;-51
2022/06/09 07:50:07;;;;;;;0.75;0.75;;;;;;;;;;1804265;79;26364;-51
2022/06/09 07:52:35;;;;;;;0.72;0.72;;;;;;;;;;1787995;78;26323;-48
2022/06/09 07:55:02;;;;;;;0.90;0.90;;;;;;;;;;1803720;78;26367;-49
2022/06/09 07:57:29;;;;;;;0.88;0.88;;;;;;;;;;1788910;78;26273;-49
2022/06/09 07:59:57;;;;;;;0.80;0.80;;;;;;;;;;1790550;78;26349;-51
2022/06/09 08:02:24;;;;;;;0.80;0.80;;;;;;;;;;1801342;78;26284;-48
2022/06/09 08:04:51;;;;;;;0.80;0.80;;;;;;;;;;1783687;78;26775;-46
2022/06/09 08:07:19;;;;;;;0.80;0.80;;;;;;;;;;1804740;78;26793;-48
2022/06/09 08:09:46;;;;;;;0.80;0.80;;;;;;;;;;1797198;78;26370;-49
2022/06/09 08:12:13;;;;;;;0.70;0.70;;;;;;;;;;1788351;78;26310;-47
2022/06/09 08:14:40;;;;;;;0.80;0.80;;;;;;;;;;1786327;78;26361;-49
2022/06/09 08:17:09;;;;;;;0.90;0.90;;;;;;;;;;1786034;79;26294;-51
2022/06/09 08:19:37;;;;;;;0.80;0.80;;;;;;;;;;1808409;78;26307;-51
2022/06/09 08:22:04;;;;;;;0.80;0.80;;;;;;;;;;1771804;78;26291;-51
2022/06/09 08:24:34;;;;;;;0.68;0.68;;;;;;;;;;1793695;78;26310;-50
2022/06/09 08:27:02;;;;;;;0.82;0.82;;;;;;;;;;1776474;78;26388;-47
2022/06/09 08:29:29;;;;;;;0.85;0.85;;;;;;;;;;1779404;79;26299;-48
2022/06/09 08:31:56;;;;;;;0.72;0.72;;;;;;;;;;1778433;78;26356;-51
2022/06/09 08:34:24;;;;;;;0.78;0.78;;;;;;;;;;1780609;78;26283;-48
2022/06/09 08:36:52;;;;;;;0.80;0.80;;;;;;;;;;1781958;78;26897;-51
2022/06/09 08:39:19;;;;;;;0.70;0.70;;;;;;;;;;1782825;79;26735;-53
2022/06/09 08:41:52;;;;;;;0.75;0.75;;;;;;;;;;1788328;78;26374;-47
2022/06/09 08:44:30;;;;;;;0.70;0.70;;;;;;;;;;1787860;79;26687;-50
2022/06/09 08:46:59;;;;;;;0.90;0.90;;;;;;;;;;1788145;78;26224;-51
2022/06/09 08:49:33;;;;;;;0.80;0.80;;;;;;;;;;1782219;79;26295;-48
2022/06/09 08:52:08;;;;;;;0.82;0.82;;;;;;;;;;1793161;79;26368;-49
2022/06/09 08:54:37;;;;;;;0.90;0.90;;;;;;;;;;1792720;80;26691;-51
2022/06/09 08:57:06;;;;;;;0.80;0.80;;;;;;;;;;1783428;78;26455;-49
2022/06/09 08:59:37;;;;;;;0.72;0.72;;;;;;;;;;1787599;78;26280;-51
2022/06/09 09:02:08;;;;;;;0.70;0.70;;;;;;;;;;1793785;78;26834;-49
2022/06/09 09:04:37;;;;;;;0.80;0.80;;;;;;;;;;1773884;79;26371;-52
2022/06/09 09:07:06;;;;;;;0.80;0.80;;;;;;;;;;1774342;79;26404;-51
2022/06/09 09:09:35;;;;;;;0.88;0.88;;;;;;;;;;1794049;78;26768;-47
2022/06/09 09:12:09;;;;;;;0.80;0.80;;;;;;;;;;1782572;79;26714;-48
2022/06/09 09:14:38;;;;;;;0.70;0.70;;;;;;;;;;1787963;78;26273;-51
2022/06/09 09:17:10;;;;;;;0.80;0.80;;;;;;;;;;1797617;77;26361;-49
2022/06/09 09:19:51;;;;;;;0.80;0.80;;;;;;;;;;1780563;78;26353;-47
2022/06/09 09:22:30;;;;;;;0.85;0.85;;;;;;;;;;1792147;78;26693;-49
2022/06/09 09:25:14;;;;;;;0.75;0.75;;;;;;;;;;1800873;78;26232;-49
2022/06/09 09:27:55;;;;;;;0.75;0.75;;;;;;;;;;1799748;78;26295;-51
2022/06/09 09:30:27;;;;;;;0.75;0.75;;;;;;;;;;1798741;78;26386;-54
2022/06/09 09:32:56;;;;;;;0.78;0.78;;;;;;;;;;1793515;78;26283;-53
2022/06/09 09:35:40;;;;;;;0.80;0.80;;;;;;;;;;1787697;78;26381;-50
2022/06/09 09:38:08;;;;;;;0.80;0.80;;;;;;;;;;1790747;78;26236;-51
2022/06/09 09:40:37;;;;;;;0.80;0.80;;;;;;;;;;1791765;78;26401;-51
2022/06/09 09:43:06;;;;;;;0.80;0.80;;;;;;;;;;1792162;79;26885;-46
2022/06/09 09:45:35;;;;;;;0.90;0.90;;;;;;;;;;1794773;78;26744;-52
2022/06/09 09:48:04;;;;;;;1.00;1.00;;;;;;;;;;1793822;80;26319;-48
2022/06/09 09:50:38;;;;;;;0.70;0.70;;;;;;;;;;1785919;79;26374;-50
2022/06/09 09:53:07;;;;;;;0.80;0.80;;;;;;;;;;1794285;78;26222;-48
2022/06/09 09:55:39;;;;;;;0.90;0.90;;;;;;;;;;1791369;78;26307;-53
2022/06/09 09:58:17;;;;;;;0.75;0.75;;;;;;;;;;1778209;79;26315;-50
2022/06/09 10:00:45;;;;;;;0.80;0.80;;;;;;;;;;1791146;78;26346;-49
2022/06/09 10:08:47;;;;;;;0.80;0.80;;;;;;;;;;1781218;78;26338;-50
2022/06/09 10:14:02;;;;;;;0.75;0.75;;;;;;;;;;1779328;79;26271;-49
2022/06/09 10:16:31;;;;;;;0.80;0.80;;;;;;;;;;1783672;79;26614;-46
2022/06/09 10:19:00;;;;;;;0.90;0.90;;;;;;;;;;1776789;79;26382;-52
2022/06/09 10:21:27;;;;;;;0.80;0.80;;;;;;;;;;1785455;79;26296;-47
2022/06/09 10:24:01;;;;;;;0.80;0.80;;;;;;;;;;1767891;79;26372;-46
2022/06/09 10:26:30;;;;;;;0.90;0.90;;;;;;;;;;1780204;79;26397;-49
2022/06/09 10:29:11;;;;;;;0.80;0.80;;;;;;;;;;1779874;79;26290;-50
2022/06/09 10:31:46;;;;;;;0.88;0.88;;;;;;;;;;1775070;79;26342;-49
2022/06/09 10:34:15;;;;;;;0.80;0.80;;;;;;;;;;1777666;79;26810;-52
2022/06/09 10:36:43;;;;;;;0.80;0.80;;;;;;;;;;1777240;79;26288;-47
2022/06/09 10:39:18;;;;;;;0.80;0.80;;;;;;;;;;1782560;79;26304;-51
2022/06/09 10:41:47;;;;;;;1.00;1.00;;;;;;;;;;1778755;79;26853;-47
2022/06/09 10:44:16;;;;;;;0.75;0.75;;;;;;;;;;1775723;79;26322;-47
2022/06/09 10:55:15;;;;;;;0.80;0.80;;;;;;;;;;1731632;81;26352;-53
2022/06/09 10:57:45;;;;;;;0.85;0.85;;;;;;;;;;1788934;78;26808;-46
2022/06/09 11:00:20;;;;;;;0.75;0.75;;;;;;;;;;1779773;78;26334;-47
2022/06/09 11:02:49;;;;;;;1.00;1.00;;;;;;;;;;1781971;79;26302;-49
2022/06/09 11:05:18;;;;;;;0.78;0.78;;;;;;;;;;1782511;79;27050;-48
2022/06/09 11:07:47;;;;;;;0.80;0.80;;;;;;;;;;1779388;79;26362;-49
2022/06/09 11:10:22;;;;;;;0.90;0.90;;;;;;;;;;1773928;79;26341;-50
2022/06/09 11:12:56;;;;;;;0.90;0.90;;;;;;;;;;1781916;79;26679;-48
2022/06/09 11:15:40;;;;;;;0.70;0.70;;;;;;;;;;1773503;79;26722;-51
2022/06/09 11:18:09;;;;;;;0.90;0.90;;;;;;;;;;1766825;79;26636;-52
2022/06/09 11:20:38;;;;;;;0.80;0.80;;;;;;;;;;1769878;79;26333;-51
2022/06/09 11:23:09;;;;;;;0.78;0.78;;;;;;;;;;1770116;79;26258;-46
2022/06/09 11:25:38;;;;;;;0.80;0.80;;;;;;;;;;1768946;79;26746;-47
2022/06/09 11:28:10;;;;;;;0.88;0.88;;;;;;;;;;1770449;79;26987;-51
2022/06/09 11:30:38;;;;;;;0.80;0.80;;;;;;;;;;1772943;79;27046;-54
2022/06/09 11:33:13;;;;;;;0.90;0.90;;;;;;;;;;1781140;79;26777;-54
2022/06/09 11:35:57;;;;;;;0.80;0.80;;;;;;;;;;1771351;79;26314;-52
2022/06/09 11:38:26;;;;;;;0.78;0.78;;;;;;;;;;1770401;79;26237;-52
2022/06/09 11:40:58;;;;;;;1.00;1.00;;;;;;;;;;1781890;79;26327;-51
2022/06/09 11:43:30;;;;;;;0.90;0.90;;;;;;;;;;1775156;79;26821;-47
2022/06/09 11:46:02;;;;;;;0.72;0.72;;;;;;;;;;1763101;79;26302;-47
2022/06/09 11:48:31;;;;;;;0.82;0.82;;;;;;;;;;1759620;79;26620;-51
2022/06/09 11:50:59;;;;;;;0.80;0.80;;;;;;;;;;1760238;79;26380;-49
2022/06/09 11:53:28;;;;;;;0.78;0.78;;;;;;;;;;1765052;79;26441;-48
2022/06/09 11:56:14;;;;;;;0.90;0.90;;;;;;;;;;1774682;79;26394;-47
2022/06/09 11:58:43;;;;;;;0.90;0.90;;;;;;;;;;1757935;79;26872;-49
2022/06/09 12:01:15;;;;;;;0.80;0.80;;;;;;;;;;1779353;79;26931;-48
2022/06/09 12:03:46;;;;;;;0.90;0.90;;;;;;;;;;1783208;79;26243;-51
2022/06/09 12:06:18;;;;;;;0.75;0.75;;;;;;;;;;1777817;79;26428;-48
2022/06/09 12:08:53;;;;;;;0.90;0.90;;;;;;;;;;1780199;79;26310;-49
2022/06/09 12:11:22;;;;;;;0.90;0.90;;;;;;;;;;1782089;79;26370;-53
2022/06/09 12:14:00;;;;;;;0.90;0.90;;;;;;;;;;1767285;79;26321;-48
2022/06/09 12:16:30;;;;;;;0.80;0.80;;;;;;;;;;1775355;79;26379;-46
2022/06/09 12:19:15;;;;;;;0.82;0.82;;;;;;;;;;1774991;79;26286;-49
2022/06/09 12:21:44;;;;;;;0.80;0.80;;;;;;;;;;1763374;79;26304;-46
2022/06/09 12:24:16;;;;;;;0.80;0.80;;;;;;;;;;1792435;79;26324;-48
2022/06/09 12:26:45;;;;;;;0.88;0.88;;;;;;;;;;1782914;79;26774;-51
2022/06/09 12:29:20;;;;;;;0.78;0.78;;;;;;;;;;1777842;79;26334;-46
2022/06/09 12:32:05;;;;;;;0.80;0.80;;;;;;;;;;1762013;79;26285;-46
2022/06/09 12:34:33;;;;;;;0.82;0.82;;;;;;;;;;1767974;79;26791;-47
2022/06/09 12:37:01;;;;;;;0.80;0.80;;;;;;;;;;1765755;79;26317;-47
2022/06/09 12:39:42;;;;;;;0.90;0.90;;;;;;;;;;1791451;79;26310;-48
2022/06/09 12:42:27;;;;;;;0.90;0.90;;;;;;;;;;1762883;79;26874;-50
2022/06/09 12:44:55;;;;;;;0.82;0.82;;;;;;;;;;1774821;79;26356;-48
2022/06/09 12:47:24;;;;;;;0.70;0.70;;;;;;;;;;1772538;79;26265;-52
2022/06/09 12:49:56;;;;;;;0.80;0.80;;;;;;;;;;1774656;79;26369;-46
2022/06/09 12:52:43;;;;;;;0.82;0.82;;;;;;;;;;1781321;79;26286;-50
2022/06/09 12:55:16;;;;;;;0.80;0.80;;;;;;;;;;1779511;79;26379;-49
2022/06/09 12:57:46;;;;;;;0.90;0.90;;;;;;;;;;1771605;79;26751;-49
2022/06/09 13:00:24;;;;;;;0.90;0.90;;;;;;;;;;1774286;79;26852;-49
2022/06/09 13:02:52;;;;;;;0.80;0.80;;;;;;;;;;1773977;79;26291;-47
2022/06/09 13:05:32;;;;;;;0.90;0.90;;;;;;;;;;1773744;79;26377;-47
2022/06/09 13:08:03;;;;;;;0.80;0.80;;;;;;;;;;1765773;79;26407;-48
2022/06/09 13:10:32;;;;;;;0.80;0.80;;;;;;;;;;1765648;79;26368;-48
2022/06/09 13:13:04;;;;;;;0.85;0.85;;;;;;;;;;1766932;79;26400;-46
2022/06/09 13:15:37;;;;;;;0.80;0.80;;;;;;;;;;1756544;79;26301;-52
2022/06/09 13:18:06;;;;;;;0.80;0.80;;;;;;;;;;1764450;79;26412;-50
2022/06/09 13:20:35;;;;;;;0.78;0.78;;;;;;;;;;1766252;79;26359;-46
2022/06/09 13:23:02;;;;;;;0.90;0.90;;;;;;;;;;1767773;79;26244;-49
2022/06/09 13:25:29;;;;;;;0.80;0.80;;;;;;;;;;1774003;79;26674;-46
2022/06/09 13:27:57;;;;;;;0.90;0.90;;;;;;;;;;1780143;79;26363;-51
2022/06/09 13:30:32;;;;;;;0.80;0.80;;;;;;;;;;1772674;79;26616;-48
2022/06/09 13:32:59;;;;;;;0.80;0.80;;;;;;;;;;1785136;79;26395;-48
2022/06/09 13:35:32;;;;;;;0.90;0.90;;;;;;;;;;1780221;79;26316;-52
2022/06/09 13:38:01;;;;;;;0.88;0.88;;;;;;;;;;1793886;79;26691;-51
2022/06/09 13:40:30;;;;;;;0.70;0.70;;;;;;;;;;1778870;79;26356;-51
2022/06/09 13:42:59;;;;;;;0.80;0.80;;;;;;;;;;1778348;79;26416;-48
2022/06/09 13:45:30;;;;;;;0.90;0.90;;;;;;;;;;1773664;79;26295;-46
2022/06/09 13:48:05;;;;;;;0.80;0.80;;;;;;;;;;1775219;79;26817;-49
2022/06/09 13:50:38;;;;;;;0.90;0.90;;;;;;;;;;1757223;79;26303;-50
2022/06/09 13:53:15;;;;;;;0.88;0.88;;;;;;;;;;1780171;79;26497;-48
2022/06/09 13:55:43;;;;;;;0.85;0.85;;;;;;;;;;1769872;79;26304;-50
2022/06/09 13:58:11;;;;;;;0.90;0.90;;;;;;;;;;1781370;79;26380;-51
2022/06/09 14:00:46;;;;;;;0.80;0.80;;;;;;;;;;1781226;79;26305;-49
2022/06/09 14:03:15;;;;;;;0.80;0.80;;;;;;;;;;1774807;79;26318;-52
2022/06/09 14:05:50;;;;;;;0.90;0.90;;;;;;;;;;1787932;80;26290;-47
2022/06/09 14:08:18;;;;;;;0.93;0.93;;;;;;;;;;1769633;79;26289;-51
2022/06/09 14:10:45;;;;;;;0.78;0.78;;;;;;;;;;1767218;79;26757;-49
2022/06/09 14:13:12;;;;;;;0.90;0.90;;;;;;;;;;1766722;79;26305;-48
2022/06/09 14:15:41;;;;;;;0.90;0.90;;;;;;;;;;1792737;79;26245;-51
2022/06/09 14:18:10;;;;;;;0.80;0.80;;;;;;;;;;1784178;79;26358;-50
2022/06/09 14:20:37;;;;;;;0.70;0.70;;;;;;;;;;1760618;79;26766;-51
2022/06/09 14:23:06;;;;;;;0.80;0.80;;;;;;;;;;1767662;79;26728;-50
2022/06/09 14:25:34;;;;;;;0.80;0.80;;;;;;;;;;1771526;80;26806;-51
2022/06/09 14:28:01;;;;;;;0.90;0.90;;;;;;;;;;1780421;79;26226;-52
2022/06/09 14:30:29;;;;;;;0.82;0.82;;;;;;;;;;1766811;79;26806;-49
2022/06/09 14:32:57;;;;;;;0.80;0.80;;;;;;;;;;1781701;79;26833;-49
2022/06/09 14:35:24;;;;;;;0.70;0.70;;;;;;;;;;1787307;79;26432;-52
2022/06/09 14:37:51;;;;;;;0.80;0.80;;;;;;;;;;1836557;77;26350;-50
2022/06/09 14:40:23;;;;;;;0.90;0.90;;;;;;;;;;1822707;77;26346;-46
2022/06/09 14:42:51;;;;;;;0.80;0.80;;;;;;;;;;1808714;77;26748;-46
2022/06/09 14:45:19;;;;;;;0.80;0.80;;;;;;;;;;1819869;77;26295;-48
2022/06/09 14:47:46;;;;;;;0.80;0.80;;;;;;;;;;1826406;77;26637;-49
2022/06/09 14:50:15;;;;;;;0.80;0.80;;;;;;;;;;1827816;77;26288;-49
2022/06/09 14:52:43;;;;;;;0.90;0.90;;;;;;;;;;1821781;77;26367;-53
2022/06/09 14:55:12;;;;;;;0.80;0.80;;;;;;;;;;1825577;77;26748;-50
2022/06/09 14:57:40;;;;;;;0.70;0.70;;;;;;;;;;1801730;77;26881;-47
2022/06/09 15:00:09;;;;;;;0.70;0.70;;;;;;;;;;1817041;77;26282;-50
2022/06/09 15:02:36;;;;;;;0.88;0.88;;;;;;;;;;1815406;77;26708;-52
2022/06/09 15:05:06;;;;;;;1.00;1.00;;;;;;;;;;1819387;77;26650;-51
2022/06/09 15:07:32;;;;;;;0.90;0.90;;;;;;;;;;1817018;77;26718;-50
2022/06/09 15:10:00;;;;;;;0.90;0.90;;;;;;;;;;1805182;77;26393;-46
2022/06/09 15:12:28;;;;;;;0.80;0.80;;;;;;;;;;1807325;77;26279;-48
2022/06/09 15:14:55;;;;;;;0.80;0.80;;;;;;;;;;1808526;77;26381;-51
2022/06/09 15:17:23;;;;;;;0.80;0.80;;;;;;;;;;1804893;77;26268;-54
2022/06/09 15:19:50;;;;;;;0.80;0.80;;;;;;;;;;1808787;77;26295;-53
2022/06/09 15:22:17;;;;;;;0.80;0.80;;;;;;;;;;1812404;77;26311;-53